sensor_id;sensor_type;location;lat;lon;timestamp;pressure;altitude;pressure_sealevel;temperature;humidity
8575;BME280;4325;42.520;27.448;2023-03-04T00:02:19;101310.84;;;7.98;100.00
8575;BME280;4325;42.520;27.448;2023-03-04T00:04:46;101310.16;;;7.91;100.00
8575;BME280;4325;42.520;27.448;2023-03-04T00:07:13;101306.25;;;7.87;100.00
8575;BME280;4325;42.520;27.448;2023-03-04T00:09:41;101302.69;;;7.87;100.00
8575;BME280;4325;42.520;27.448;2023-03-04T00:12:09;101311.25;;;7.90;100.00
8575;BME280;4325;42.520;27.448;2023-03-04T00:14:36;101304.38;;;7.88;100.00
8575;BME280;4325;42.520;27.448;2023-03-04T00:17:03;101309.31;;;8.03;100.00
8575;BME280;4325;42.520;27.448;2023-03-04T00:19:31;101303.88;;;8.03;100.00
8575;BME280;4325;42.520;27.448;2023-03-04T00:21:59;101298.31;;;7.97;100.00
8575;BME280;4325;42.520;27.448;2023-03-04T00:24:26;101302.81;;;7.92;100.00
8575;BME280;4325;42.520;27.448;2023-03-04T00:26:53;101296.41;;;7.86;100.00
8575;BME280;4325;42.520;27.448;2023-03-04T00:29:21;101282.19;;;7.84;100.00
8575;BME280;4325;42.520;27.448;2023-03-04T00:31:48;101276.75;;;7.84;100.00
8575;BME280;4325;42.520;27.448;2023-03-04T00:34:15;101277.53;;;7.96;100.00
8575;BME280;4325;42.520;27.448;2023-03-04T00:36:41;101264.84;;;8.02;100.00
8575;BME280;4325;42.520;27.448;2023-03-04T00:39:09;101259.72;;;8.06;100.00
8575;BME280;4325;42.520;27.448;2023-03-04T00:41:36;101265.19;;;8.06;100.00
8575;BME280;4325;42.520;27.448;2023-03-04T00:44:04;101264.22;;;8.12;100.00
8575;BME280;4325;42.520;27.448;2023-03-04T00:46:32;101258.03;;;8.16;100.00
8575;BME280;4325;42.520;27.448;2023-03-04T00:48:59;101255.56;;;8.15;100.00
8575;BME280;4325;42.520;27.448;2023-03-04T00:51:26;101258.78;;;8.12;100.00
8575;BME280;4325;42.520;27.448;2023-03-04T00:53:53;101248.44;;;8.14;100.00
8575;BME280;4325;42.520;27.448;2023-03-04T00:56:20;101239.69;;;8.12;100.00
8575;BME280;4325;42.520;27.448;2023-03-04T00:58:46;101236.38;;;8.10;100.00
8575;BME280;4325;42.520;27.448;2023-03-04T01:01:13;101242.06;;;8.08;100.00
8575;BME280;4325;42.520;27.448;2023-03-04T01:03:41;101236.50;;;8.03;100.00
8575;BME280;4325;42.520;27.448;2023-03-04T01:06:08;101233.44;;;7.99;100.00
8575;BME280;4325;42.520;27.448;2023-03-04T01:08:35;101230.50;;;7.89;100.00
8575;BME280;4325;42.520;27.448;2023-03-04T01:11:03;101228.16;;;7.81;100.00
8575;BME280;4325;42.520;27.448;2023-03-04T01:13:30;101231.59;;;7.77;100.00
8575;BME280;4325;42.520;27.448;2023-03-04T01:15:57;101233.75;;;7.75;100.00
8575;BME280;4325;42.520;27.448;2023-03-04T01:18:23;101235.75;;;7.79;100.00
8575;BME280;4325;42.520;27.448;2023-03-04T01:20:52;101236.94;;;7.83;100.00
8575;BME280;4325;42.520;27.448;2023-03-04T01:23:18;101235.03;;;7.84;100.00
8575;BME280;4325;42.520;27.448;2023-03-04T01:25:45;101238.47;;;7.79;100.00
8575;BME280;4325;42.520;27.448;2023-03-04T01:28:12;101235.66;;;7.74;100.00
8575;BME280;4325;42.520;27.448;2023-03-04T01:30:39;101232.59;;;7.71;100.00
8575;BME280;4325;42.520;27.448;2023-03-04T01:33:06;101230.09;;;7.69;100.00
8575;BME280;4325;42.520;27.448;2023-03-04T01:35:33;101233.41;;;7.71;100.00
8575;BME280;4325;42.520;27.448;2023-03-04T01:38:01;101226.91;;;7.61;100.00
8575;BME280;4325;42.520;27.448;2023-03-04T01:40:28;101245.00;;;7.67;100.00
8575;BME280;4325;42.520;27.448;2023-03-04T01:42:56;101244.69;;;7.63;100.00
8575;BME280;4325;42.520;27.448;2023-03-04T01:45:23;101230.09;;;7.69;100.00
8575;BME280;4325;42.520;27.448;2023-03-04T01:47:50;101232.34;;;7.72;100.00
8575;BME280;4325;42.520;27.448;2023-03-04T01:50:21;101243.13;;;7.67;100.00
8575;BME280;4325;42.520;27.448;2023-03-04T01:52:49;101234.50;;;7.59;100.00
8575;BME280;4325;42.520;27.448;2023-03-04T01:55:20;101236.16;;;7.60;100.00
8575;BME280;4325;42.520;27.448;2023-03-04T01:57:49;101236.88;;;7.55;100.00
8575;BME280;4325;42.520;27.448;2023-03-04T02:00:22;101240.56;;;7.49;100.00
8575;BME280;4325;42.520;27.448;2023-03-04T02:02:52;101247.78;;;7.44;100.00
8575;BME280;4325;42.520;27.448;2023-03-04T02:05:20;101253.25;;;7.44;100.00
8575;BME280;4325;42.520;27.448;2023-03-04T02:07:48;101261.75;;;7.47;100.00
8575;BME280;4325;42.520;27.448;2023-03-04T02:10:15;101262.59;;;7.48;100.00
8575;BME280;4325;42.520;27.448;2023-03-04T02:13:02;101265.22;;;7.54;100.00
8575;BME280;4325;42.520;27.448;2023-03-04T02:15:29;101268.13;;;7.64;100.00
8575;BME280;4325;42.520;27.448;2023-03-04T02:17:57;101265.03;;;7.72;100.00
8575;BME280;4325;42.520;27.448;2023-03-04T02:20:38;101257.69;;;7.73;100.00
8575;BME280;4325;42.520;27.448;2023-03-04T02:23:12;101261.63;;;7.65;100.00
8575;BME280;4325;42.520;27.448;2023-03-04T02:25:44;101252.84;;;7.63;100.00
8575;BME280;4325;42.520;27.448;2023-03-04T02:28:15;101262.19;;;7.67;100.00
8575;BME280;4325;42.520;27.448;2023-03-04T02:30:42;101260.16;;;7.74;100.00
8575;BME280;4325;42.520;27.448;2023-03-04T02:33:13;101261.56;;;7.88;100.00
8575;BME280;4325;42.520;27.448;2023-03-04T02:35:41;101263.69;;;7.98;100.00
8575;BME280;4325;42.520;27.448;2023-03-04T02:38:09;101266.28;;;8.05;100.00
8575;BME280;4325;42.520;27.448;2023-03-04T02:40:37;101264.03;;;8.02;100.00
8575;BME280;4325;42.520;27.448;2023-03-04T02:43:05;101266.16;;;7.99;100.00
8575;BME280;4325;42.520;27.448;2023-03-04T02:45:40;101261.28;;;8.02;100.00
8575;BME280;4325;42.520;27.448;2023-03-04T02:48:08;101259.56;;;7.95;100.00
8575;BME280;4325;42.520;27.448;2023-03-04T02:50:38;101257.28;;;7.92;100.00
8575;BME280;4325;42.520;27.448;2023-03-04T02:53:06;101258.25;;;7.86;100.00
8575;BME280;4325;42.520;27.448;2023-03-04T02:55:33;101253.16;;;7.90;100.00
8575;BME280;4325;42.520;27.448;2023-03-04T02:58:00;101261.09;;;7.91;100.00
8575;BME280;4325;42.520;27.448;2023-03-04T03:00:27;101264.38;;;7.93;100.00
8575;BME280;4325;42.520;27.448;2023-03-04T03:02:56;101268.47;;;7.79;100.00
8575;BME280;4325;42.520;27.448;2023-03-04T03:05:24;101270.38;;;7.67;100.00
8575;BME280;4325;42.520;27.448;2023-03-04T03:07:52;101281.66;;;7.59;100.00
8575;BME280;4325;42.520;27.448;2023-03-04T03:10:19;101284.41;;;7.59;100.00
8575;BME280;4325;42.520;27.448;2023-03-04T03:12:46;101282.94;;;7.68;100.00
8575;BME280;4325;42.520;27.448;2023-03-04T03:15:13;101284.13;;;7.72;100.00
8575;BME280;4325;42.520;27.448;2023-03-04T03:17:40;101278.88;;;7.82;100.00
8575;BME280;4325;42.520;27.448;2023-03-04T03:20:10;101272.25;;;7.90;100.00
8575;BME280;4325;42.520;27.448;2023-03-04T03:22:39;101290.00;;;7.92;100.00
8575;BME280;4325;42.520;27.448;2023-03-04T03:25:07;101269.03;;;7.93;100.00
8575;BME280;4325;42.520;27.448;2023-03-04T03:27:35;101276.50;;;7.97;100.00
8575;BME280;4325;42.520;27.448;2023-03-04T03:30:02;101268.78;;;7.94;100.00
8575;BME280;4325;42.520;27.448;2023-03-04T03:32:29;101268.53;;;7.96;100.00
8575;BME280;4325;42.520;27.448;2023-03-04T03:34:56;101268.06;;;7.99;100.00
8575;BME280;4325;42.520;27.448;2023-03-04T03:37:24;101260.47;;;8.01;100.00
8575;BME280;4325;42.520;27.448;2023-03-04T03:39:51;101270.31;;;8.02;100.00
8575;BME280;4325;42.520;27.448;2023-03-04T03:42:17;101268.63;;;8.01;100.00
8575;BME280;4325;42.520;27.448;2023-03-04T03:44:44;101266.75;;;8.02;100.00
8575;BME280;4325;42.520;27.448;2023-03-04T03:47:11;101263.44;;;7.99;100.00
8575;BME280;4325;42.520;27.448;2023-03-04T03:49:38;101260.34;;;7.96;100.00
8575;BME280;4325;42.520;27.448;2023-03-04T03:52:05;101260.59;;;7.94;100.00
8575;BME280;4325;42.520;27.448;2023-03-04T03:54:34;101249.94;;;7.93;100.00
8575;BME280;4325;42.520;27.448;2023-03-04T03:57:00;101264.91;;;7.90;100.00
8575;BME280;4325;42.520;27.448;2023-03-04T03:59:27;101266.69;;;7.85;100.00
8575;BME280;4325;42.520;27.448;2023-03-04T04:01:54;101258.75;;;7.83;100.00
8575;BME280;4325;42.520;27.448;2023-03-04T04:04:21;101252.34;;;7.78;100.00
8575;BME280;4325;42.520;27.448;2023-03-04T04:06:48;101252.00;;;7.74;100.00
8575;BME280;4325;42.520;27.448;2023-03-04T04:09:15;101259.00;;;7.70;100.00
8575;BME280;4325;42.520;27.448;2023-03-04T04:11:43;101266.72;;;7.73;100.00
8575;BME280;4325;42.520;27.448;2023-03-04T04:14:11;101273.22;;;7.72;100.00
8575;BME280;4325;42.520;27.448;2023-03-04T04:16:38;101279.97;;;7.70;100.00
8575;BME280;4325;42.520;27.448;2023-03-04T04:19:05;101278.56;;;7.67;100.00
8575;BME280;4325;42.520;27.448;2023-03-04T04:21:32;101287.31;;;7.69;100.00
8575;BME280;4325;42.520;27.448;2023-03-04T04:23:59;101283.66;;;7.75;100.00
8575;BME280;4325;42.520;27.448;2023-03-04T04:26:26;101290.25;;;7.79;100.00
8575;BME280;4325;42.520;27.448;2023-03-04T04:28:54;101284.94;;;7.84;100.00
8575;BME280;4325;42.520;27.448;2023-03-04T04:31:21;101293.47;;;7.88;100.00
8575;BME280;4325;42.520;27.448;2023-03-04T04:33:48;101288.13;;;7.81;100.00
8575;BME280;4325;42.520;27.448;2023-03-04T04:36:15;101295.38;;;7.76;100.00
8575;BME280;4325;42.520;27.448;2023-03-04T04:38:42;101288.41;;;7.68;100.00
8575;BME280;4325;42.520;27.448;2023-03-04T04:41:17;101287.47;;;7.51;100.00
8575;BME280;4325;42.520;27.448;2023-03-04T04:43:45;101282.97;;;7.45;100.00
8575;BME280;4325;42.520;27.448;2023-03-04T04:46:13;101259.50;;;7.21;100.00
8575;BME280;4325;42.520;27.448;2023-03-04T04:48:40;101289.84;;;7.36;100.00
8575;BME280;4325;42.520;27.448;2023-03-04T04:51:08;101283.91;;;7.39;100.00
8575;BME280;4325;42.520;27.448;2023-03-04T04:53:35;101282.97;;;7.45;100.00
8575;BME280;4325;42.520;27.448;2023-03-04T04:56:08;101292.81;;;7.46;100.00
8575;BME280;4325;42.520;27.448;2023-03-04T04:58:35;101291.38;;;7.55;100.00
8575;BME280;4325;42.520;27.448;2023-03-04T05:01:02;101293.47;;;7.65;100.00
8575;BME280;4325;42.520;27.448;2023-03-04T05:03:31;101296.00;;;7.66;100.00
8575;BME280;4325;42.520;27.448;2023-03-04T05:05:58;101298.34;;;7.74;100.00
8575;BME280;4325;42.520;27.448;2023-03-04T05:08:25;101298.81;;;7.83;100.00
8575;BME280;4325;42.520;27.448;2023-03-04T05:10:52;101301.75;;;7.81;100.00
8575;BME280;4325;42.520;27.448;2023-03-04T05:13:19;101293.09;;;7.84;100.00
8575;BME280;4325;42.520;27.448;2023-03-04T05:15:46;101292.16;;;7.90;100.00
8575;BME280;4325;42.520;27.448;2023-03-04T05:18:13;101298.41;;;7.91;100.00
8575;BME280;4325;42.520;27.448;2023-03-04T05:20:41;101298.31;;;7.97;100.00
8575;BME280;4325;42.520;27.448;2023-03-04T05:23:08;101294.59;;;8.04;100.00
8575;BME280;4325;42.520;27.448;2023-03-04T05:25:35;101298.63;;;8.01;100.00
8575;BME280;4325;42.520;27.448;2023-03-04T05:28:02;101298.50;;;8.08;100.00
8575;BME280;4325;42.520;27.448;2023-03-04T05:30:29;101304.41;;;8.16;100.00
8575;BME280;4325;42.520;27.448;2023-03-04T05:32:56;101301.53;;;8.23;100.00
8575;BME280;4325;42.520;27.448;2023-03-04T05:35:23;101306.75;;;8.36;100.00
8575;BME280;4325;42.520;27.448;2023-03-04T05:37:51;101309.41;;;8.47;100.00
8575;BME280;4325;42.520;27.448;2023-03-04T05:40:18;101308.03;;;8.61;100.00
8575;BME280;4325;42.520;27.448;2023-03-04T05:42:45;101300.41;;;8.75;100.00
8575;BME280;4325;42.520;27.448;2023-03-04T05:45:12;101318.56;;;8.70;100.00
8575;BME280;4325;42.520;27.448;2023-03-04T05:47:38;101311.31;;;8.75;100.00
8575;BME280;4325;42.520;27.448;2023-03-04T05:50:06;101318.50;;;8.81;100.00
8575;BME280;4325;42.520;27.448;2023-03-04T05:52:33;101320.75;;;8.84;100.00
8575;BME280;4325;42.520;27.448;2023-03-04T05:55:01;101312.47;;;8.79;100.00
8575;BME280;4325;42.520;27.448;2023-03-04T05:57:28;101310.66;;;8.68;100.00
8575;BME280;4325;42.520;27.448;2023-03-04T05:59:55;101299.25;;;8.71;100.00
8575;BME280;4325;42.520;27.448;2023-03-04T06:02:22;101302.22;;;8.86;100.00
8575;BME280;4325;42.520;27.448;2023-03-04T06:04:48;101300.09;;;8.88;100.00
8575;BME280;4325;42.520;27.448;2023-03-04T06:07:15;101301.91;;;8.99;100.00
8575;BME280;4325;42.520;27.448;2023-03-04T06:09:42;101312.00;;;8.99;100.00
8575;BME280;4325;42.520;27.448;2023-03-04T06:12:11;101313.31;;;9.13;100.00
8575;BME280;4325;42.520;27.448;2023-03-04T06:14:38;101312.81;;;9.32;100.00
8575;BME280;4325;42.520;27.448;2023-03-04T06:17:05;101316.59;;;9.65;100.00
8575;BME280;4325;42.520;27.448;2023-03-04T06:19:31;101313.25;;;9.79;100.00
8575;BME280;4325;42.520;27.448;2023-03-04T06:21:58;101323.31;;;9.95;100.00
8575;BME280;4325;42.520;27.448;2023-03-04T06:24:25;101317.00;;;10.12;100.00
8575;BME280;4325;42.520;27.448;2023-03-04T06:26:53;101324.81;;;10.46;100.00
8575;BME280;4325;42.520;27.448;2023-03-04T06:29:21;101327.72;;;10.88;100.00
8575;BME280;4325;42.520;27.448;2023-03-04T06:31:48;101323.97;;;11.26;98.86
8575;BME280;4325;42.520;27.448;2023-03-04T06:34:15;101319.84;;;11.60;96.28
8575;BME280;4325;42.520;27.448;2023-03-04T06:36:42;101320.53;;;11.77;94.00
8575;BME280;4325;42.520;27.448;2023-03-04T06:39:09;101325.38;;;12.17;93.43
8575;BME280;4325;42.520;27.448;2023-03-04T06:41:36;101328.31;;;12.68;91.34
8575;BME280;4325;42.520;27.448;2023-03-04T06:44:03;101319.88;;;13.09;88.15
8575;BME280;4325;42.520;27.448;2023-03-04T06:46:33;101327.03;;;13.46;86.27
8575;BME280;4325;42.520;27.448;2023-03-04T06:49:00;101328.09;;;13.75;84.05
8575;BME280;4325;42.520;27.448;2023-03-04T06:51:27;101323.63;;;14.04;81.81
8575;BME280;4325;42.520;27.448;2023-03-04T06:53:54;101331.78;;;14.24;80.30
8575;BME280;4325;42.520;27.448;2023-03-04T06:56:21;101330.69;;;14.35;78.98
8575;BME280;4325;42.520;27.448;2023-03-04T06:58:48;101330.19;;;14.18;75.01
8575;BME280;4325;42.520;27.448;2023-03-04T07:01:18;101336.28;;;14.00;76.13
8575;BME280;4325;42.520;27.448;2023-03-04T07:03:48;101339.63;;;13.87;77.24
8575;BME280;4325;42.520;27.448;2023-03-04T07:06:17;101335.25;;;13.71;77.40
8575;BME280;4325;42.520;27.448;2023-03-04T07:08:45;101324.25;;;13.71;77.44
8575;BME280;4325;42.520;27.448;2023-03-04T07:11:12;101323.69;;;13.79;78.85
8575;BME280;4325;42.520;27.448;2023-03-04T07:13:39;101312.34;;;13.90;78.64
8575;BME280;4325;42.520;27.448;2023-03-04T07:16:08;101318.94;;;13.95;76.27
8575;BME280;4325;42.520;27.448;2023-03-04T07:18:35;101325.31;;;13.85;76.01
8575;BME280;4325;42.520;27.448;2023-03-04T07:21:05;101327.53;;;13.68;77.54
8575;BME280;4325;42.520;27.448;2023-03-04T07:23:32;101324.00;;;13.52;79.62
8575;BME280;4325;42.520;27.448;2023-03-04T07:26:00;101308.88;;;13.40;80.27
8575;BME280;4325;42.520;27.448;2023-03-04T07:28:27;101313.84;;;13.38;80.69
8575;BME280;4325;42.520;27.448;2023-03-04T07:30:53;101316.03;;;13.46;80.47
8575;BME280;4325;42.520;27.448;2023-03-04T07:33:20;101305.28;;;13.39;79.94
8575;BME280;4325;42.520;27.448;2023-03-04T07:35:47;101301.75;;;13.23;80.42
8575;BME280;4325;42.520;27.448;2023-03-04T07:38:15;101299.00;;;13.18;82.23
8575;BME280;4325;42.520;27.448;2023-03-04T07:40:42;101297.81;;;12.64;85.38
8575;BME280;4325;42.520;27.448;2023-03-04T07:43:12;101291.38;;;12.23;88.65
8575;BME280;4325;42.520;27.448;2023-03-04T07:45:39;101296.25;;;12.11;89.49
8575;BME280;4325;42.520;27.448;2023-03-04T07:48:06;101300.16;;;12.25;90.20
8575;BME280;4325;42.520;27.448;2023-03-04T07:50:33;101300.53;;;12.54;86.55
8575;BME280;4325;42.520;27.448;2023-03-04T07:52:59;101305.19;;;12.58;85.79
8575;BME280;4325;42.520;27.448;2023-03-04T07:55:28;101305.53;;;12.72;83.75
8575;BME280;4325;42.520;27.448;2023-03-04T07:57:56;101311.03;;;12.92;82.40
8575;BME280;4325;42.520;27.448;2023-03-04T08:00:22;101316.03;;;13.36;80.64
8575;BME280;4325;42.520;27.448;2023-03-04T08:02:49;101322.63;;;13.50;75.39
8575;BME280;4325;42.520;27.448;2023-03-04T08:05:16;101323.72;;;13.49;73.76
8575;BME280;4325;42.520;27.448;2023-03-04T08:07:43;101333.00;;;13.88;73.72
8575;BME280;4325;42.520;27.448;2023-03-04T08:10:10;101312.63;;;13.94;72.45
8575;BME280;4325;42.520;27.448;2023-03-04T08:12:39;101314.72;;;14.32;70.50
8575;BME280;4325;42.520;27.448;2023-03-04T08:15:07;101318.59;;;14.75;66.36
8575;BME280;4325;42.520;27.448;2023-03-04T08:17:34;101318.00;;;15.22;64.46
8575;BME280;4325;42.520;27.448;2023-03-04T08:20:01;101310.16;;;15.68;60.21
8575;BME280;4325;42.520;27.448;2023-03-04T08:22:28;101305.72;;;15.96;60.20
8575;BME280;4325;42.520;27.448;2023-03-04T08:24:55;101307.72;;;17.63;55.65
8575;BME280;4325;42.520;27.448;2023-03-04T08:27:21;101314.22;;;17.99;50.53
8575;BME280;4325;42.520;27.448;2023-03-04T08:29:50;101307.88;;;17.53;51.00
8575;BME280;4325;42.520;27.448;2023-03-04T08:32:16;101298.00;;;17.14;52.05
8575;BME280;4325;42.520;27.448;2023-03-04T08:34:43;101313.09;;;18.00;50.59
8575;BME280;4325;42.520;27.448;2023-03-04T08:37:10;101311.81;;;17.65;49.72
8575;BME280;4325;42.520;27.448;2023-03-04T08:39:37;101304.69;;;16.76;52.03
8575;BME280;4325;42.520;27.448;2023-03-04T08:42:04;101306.50;;;17.69;51.63
8575;BME280;4325;42.520;27.448;2023-03-04T08:44:31;101308.56;;;18.04;48.04
8575;BME280;4325;42.520;27.448;2023-03-04T08:46:59;101317.03;;;17.67;48.88
8575;BME280;4325;42.520;27.448;2023-03-04T08:49:26;101317.22;;;18.03;48.85
8575;BME280;4325;42.520;27.448;2023-03-04T08:51:52;101307.97;;;18.34;46.83
8575;BME280;4325;42.520;27.448;2023-03-04T08:54:19;101298.00;;;17.47;49.04
8575;BME280;4325;42.520;27.448;2023-03-04T08:56:46;101297.38;;;17.50;49.90
8575;BME280;4325;42.520;27.448;2023-03-04T08:59:13;101293.16;;;18.25;49.24
8575;BME280;4325;42.520;27.448;2023-03-04T09:01:40;101286.69;;;18.57;46.54
8575;BME280;4325;42.520;27.448;2023-03-04T09:04:08;101278.41;;;18.79;46.02
8575;BME280;4325;42.520;27.448;2023-03-04T09:06:35;101288.13;;;17.73;48.71
8575;BME280;4325;42.520;27.448;2023-03-04T09:09:02;101276.78;;;18.15;47.86
8575;BME280;4325;42.520;27.448;2023-03-04T09:11:29;101279.34;;;18.75;46.59
8575;BME280;4325;42.520;27.448;2023-03-04T09:13:56;101268.28;;;19.41;46.01
8575;BME280;4325;42.520;27.448;2023-03-04T09:16:23;101270.03;;;19.37;44.21
8575;BME280;4325;42.520;27.448;2023-03-04T09:18:50;101273.47;;;18.27;46.73
8575;BME280;4325;42.520;27.448;2023-03-04T09:21:18;101253.88;;;17.69;48.77
8575;BME280;4325;42.520;27.448;2023-03-04T09:23:45;101260.84;;;17.66;49.10
8575;BME280;4325;42.520;27.448;2023-03-04T09:26:17;101251.09;;;16.72;51.27
8575;BME280;4325;42.520;27.448;2023-03-04T09:28:44;101252.47;;;15.66;55.83
8575;BME280;4325;42.520;27.448;2023-03-04T09:31:12;101244.47;;;15.07;59.65
8575;BME280;4325;42.520;27.448;2023-03-04T09:33:39;101231.50;;;15.65;59.11
8575;BME280;4325;42.520;27.448;2023-03-04T09:36:08;101227.53;;;16.19;56.44
8575;BME280;4325;42.520;27.448;2023-03-04T09:38:37;101226.97;;;17.10;54.04
8575;BME280;4325;42.520;27.448;2023-03-04T09:41:06;101227.75;;;18.52;49.62
8575;BME280;4325;42.520;27.448;2023-03-04T09:43:34;101222.47;;;17.87;49.02
8575;BME280;4325;42.520;27.448;2023-03-04T09:46:06;101231.22;;;17.80;49.88
8575;BME280;4325;42.520;27.448;2023-03-04T09:48:39;101228.44;;;18.08;50.33
8575;BME280;4325;42.520;27.448;2023-03-04T09:51:18;101231.59;;;18.01;49.06
8575;BME280;4325;42.520;27.448;2023-03-04T09:53:58;101220.25;;;17.30;50.65
8575;BME280;4325;42.520;27.448;2023-03-04T09:56:32;101207.47;;;17.01;51.65
8575;BME280;4325;42.520;27.448;2023-03-04T09:59:06;101199.84;;;16.61;52.42
8575;BME280;4325;42.520;27.448;2023-03-04T10:01:40;101200.44;;;16.39;53.25
8575;BME280;4325;42.520;27.448;2023-03-04T10:04:11;101185.94;;;16.47;54.73
8575;BME280;4325;42.520;27.448;2023-03-04T10:06:40;101191.84;;;16.78;52.57
8575;BME280;4325;42.520;27.448;2023-03-04T10:09:12;101194.69;;;16.17;54.49
8575;BME280;4325;42.520;27.448;2023-03-04T10:11:44;101186.56;;;15.83;56.24
8575;BME280;4325;42.520;27.448;2023-03-04T10:14:26;101176.34;;;15.60;57.91
8575;BME280;4325;42.520;27.448;2023-03-04T10:17:01;101174.38;;;16.27;56.74
8575;BME280;4325;42.520;27.448;2023-03-04T10:19:47;101164.47;;;17.50;53.27
8575;BME280;4325;42.520;27.448;2023-03-04T10:22:20;101162.41;;;18.45;48.12
8575;BME280;4325;42.520;27.448;2023-03-04T10:24:52;101158.56;;;19.30;46.09
8575;BME280;4325;42.520;27.448;2023-03-04T10:27:21;101158.03;;;18.67;46.08
8575;BME280;4325;42.520;27.448;2023-03-04T10:29:49;101160.63;;;18.63;46.66
8575;BME280;4325;42.520;27.448;2023-03-04T10:32:18;101150.13;;;18.74;46.16
8575;BME280;4325;42.520;27.448;2023-03-04T10:34:46;101146.75;;;18.85;46.00
8575;BME280;4325;42.520;27.448;2023-03-04T10:37:13;101144.16;;;18.67;46.22
8575;BME280;4325;42.520;27.448;2023-03-04T10:39:41;101127.75;;;18.34;47.07
8575;BME280;4325;42.520;27.448;2023-03-04T10:42:27;101126.47;;;18.18;47.49
8575;BME280;4325;42.520;27.448;2023-03-04T10:44:57;101113.25;;;19.43;45.32
8575;BME280;4325;42.520;27.448;2023-03-04T10:47:30;101102.94;;;22.11;40.93
8575;BME280;4325;42.520;27.448;2023-03-04T10:50:00;101097.38;;;25.33;34.67
8575;BME280;4325;42.520;27.448;2023-03-04T10:52:29;101093.38;;;28.83;29.72
8575;BME280;4325;42.520;27.448;2023-03-04T10:54:57;101082.72;;;31.11;25.14
8575;BME280;4325;42.520;27.448;2023-03-04T10:57:33;101088.78;;;30.06;25.82
8575;BME280;4325;42.520;27.448;2023-03-04T11:00:08;101086.53;;;28.17;27.74
8575;BME280;4325;42.520;27.448;2023-03-04T11:02:46;101089.16;;;27.05;29.26
8575;BME280;4325;42.520;27.448;2023-03-04T11:05:18;101090.38;;;25.27;30.70
8575;BME280;4325;42.520;27.448;2023-03-04T11:07:48;101093.00;;;24.33;32.75
8575;BME280;4325;42.520;27.448;2023-03-04T11:10:19;101098.56;;;22.22;35.81
8575;BME280;4325;42.520;27.448;2023-03-04T11:12:55;101092.34;;;21.09;38.51
8575;BME280;4325;42.520;27.448;2023-03-04T11:15:27;101085.31;;;20.39;39.60
8575;BME280;4325;42.520;27.448;2023-03-04T11:17:58;101076.59;;;21.13;39.09
8575;BME280;4325;42.520;27.448;2023-03-04T11:20:31;101069.25;;;22.70;36.29
8575;BME280;4325;42.520;27.448;2023-03-04T11:23:03;101068.31;;;25.10;33.19
8575;BME280;4325;42.520;27.448;2023-03-04T11:25:33;101065.91;;;24.09;33.22
8575;BME280;4325;42.520;27.448;2023-03-04T11:28:04;101058.88;;;23.63;33.83
8575;BME280;4325;42.520;27.448;2023-03-04T11:30:35;101058.00;;;24.11;33.48
8575;BME280;4325;42.520;27.448;2023-03-04T11:33:11;101068.97;;;25.19;31.37
8575;BME280;4325;42.520;27.448;2023-03-04T11:35:47;101053.66;;;28.25;28.84
8575;BME280;4325;42.520;27.448;2023-03-04T11:38:18;101050.31;;;29.26;26.77
8575;BME280;4325;42.520;27.448;2023-03-04T11:40:49;101052.00;;;28.20;26.91
8575;BME280;4325;42.520;27.448;2023-03-04T11:43:24;101059.28;;;25.82;29.23
8575;BME280;4325;42.520;27.448;2023-03-04T11:46:23;101047.53;;;24.79;31.09
8575;BME280;4325;42.520;27.448;2023-03-04T11:49:05;101039.31;;;23.15;33.18
8575;BME280;4325;42.520;27.448;2023-03-04T11:51:37;101049.84;;;22.41;34.45
8575;BME280;4325;42.520;27.448;2023-03-04T11:54:18;101047.97;;;21.12;36.48
8575;BME280;4325;42.520;27.448;2023-03-04T11:56:50;101047.97;;;20.40;37.73
8575;BME280;4325;42.520;27.448;2023-03-04T11:59:54;101040.94;;;20.08;38.16
8575;BME280;4325;42.520;27.448;2023-03-04T12:02:31;101040.13;;;19.65;39.38
8575;BME280;4325;42.520;27.448;2023-03-04T12:05:32;101037.63;;;19.46;40.05
8575;BME280;4325;42.520;27.448;2023-03-04T12:08:20;101027.72;;;19.80;39.08
8575;BME280;4325;42.520;27.448;2023-03-04T12:10:57;101029.00;;;20.08;38.89
8575;BME280;4325;42.520;27.448;2023-03-04T12:13:47;101030.66;;;20.17;39.07
8575;BME280;4325;42.520;27.448;2023-03-04T12:16:31;101025.28;;;20.84;38.28
8575;BME280;4325;42.520;27.448;2023-03-04T12:19:08;101028.00;;;20.55;38.17
8575;BME280;4325;42.520;27.448;2023-03-04T12:21:54;101027.88;;;20.26;38.54
8575;BME280;4325;42.520;27.448;2023-03-04T12:24:54;101018.38;;;19.02;41.08
8575;BME280;4325;42.520;27.448;2023-03-04T12:27:31;101017.97;;;18.86;42.08
8575;BME280;4325;42.520;27.448;2023-03-04T12:30:03;101014.84;;;18.26;43.15
8575;BME280;4325;42.520;27.448;2023-03-04T12:32:40;101007.94;;;18.15;44.06
8575;BME280;4325;42.520;27.448;2023-03-04T12:35:21;101010.50;;;17.54;44.96
8575;BME280;4325;42.520;27.448;2023-03-04T12:40:53;101009.69;;;18.33;43.66
8575;BME280;4325;42.520;27.448;2023-03-04T12:43:35;101001.38;;;17.89;44.17
8575;BME280;4325;42.520;27.448;2023-03-04T12:46:14;100997.84;;;17.97;43.90
8575;BME280;4325;42.520;27.448;2023-03-04T12:48:51;100996.25;;;17.47;45.03
8575;BME280;4325;42.520;27.448;2023-03-04T12:51:28;101000.72;;;16.66;48.38
8575;BME280;4325;42.520;27.448;2023-03-04T12:54:07;100996.50;;;16.69;48.78
8575;BME280;4325;42.520;27.448;2023-03-04T12:56:42;100990.06;;;16.60;49.62
8575;BME280;4325;42.520;27.448;2023-03-04T12:59:15;100988.00;;;16.65;50.09
8575;BME280;4325;42.520;27.448;2023-03-04T13:01:48;100990.25;;;16.63;49.97
8575;BME280;4325;42.520;27.448;2023-03-04T13:04:22;100986.88;;;16.20;51.22
8575;BME280;4325;42.520;27.448;2023-03-04T13:07:06;100973.28;;;15.73;54.05
8575;BME280;4325;42.520;27.448;2023-03-04T13:09:39;100975.91;;;15.83;54.89
8575;BME280;4325;42.520;27.448;2023-03-04T13:12:14;100969.31;;;15.98;54.93
8575;BME280;4325;42.520;27.448;2023-03-04T13:15:25;100972.16;;;16.25;53.81
8575;BME280;4325;42.520;27.448;2023-03-04T13:17:53;100966.03;;;16.28;52.72